Time;durP1;ratioP1;P1;durP2;ratioP2;P2;SDS_P1;SDS_P2;PMS_P1;PMS_P2;Temp;Humidity;BMP_temperature;BMP_pressure;BME280_temperature;BME280_humidity;BME280_pressure;Samples;Min_cycle;Max_cycle;Signal;HPM_P1;HPM_P2
2022/12/21 06:14:16;;;;;;;16.12;9.53;;;;;;;-0.04;100.00;100039.94;1820723;76;26155;-59
2022/12/21 06:16:43;;;;;;;;;;;;;;;0.28;100.00;100048.72;1802965;78;21438;-59
2022/12/21 06:19:10;;;;;;;15.27;10.17;;;;;;;0.55;100.00;100046.72;1808092;78;22212;-60
2022/12/21 06:21:37;;;;;;;;;;;;;;;0.77;100.00;100043.35;1807471;78;21694;-60
2022/12/21 06:24:05;;;;;;;14.93;10.90;;;;;;;0.90;100.00;100034.31;1794004;78;20437;-61
2022/12/21 06:26:32;;;;;;;15.00;11.33;;;;;;;1.02;100.00;100041.23;1791094;78;21518;-60
2022/12/21 06:28:58;;;;;;;15.23;10.85;;;;;;;1.09;100.00;100033.52;1784421;78;20993;-60
2022/12/21 07:02:42;;;;;;;13.43;8.75;;;;;;;1.88;100.00;100037.41;1804441;78;21593;-65
2022/12/21 07:05:09;;;;;;;13.85;7.50;;;;;;;1.93;100.00;100046.91;1810438;78;21396;-63
2022/12/21 07:07:36;;;;;;;11.30;8.55;;;;;;;2.00;100.00;100046.48;1804868;78;21866;-63
2022/12/21 07:10:05;;;;;;;10.00;7.72;;;;;;;2.06;100.00;100047.77;1802961;78;21485;-63
2022/12/21 07:12:32;;;;;;;8.60;7.30;;;;;;;2.14;100.00;100052.94;1806708;78;21565;-60
2022/12/21 07:14:59;;;;;;;15.97;8.17;;;;;;;2.17;100.00;100047.76;1804717;78;21418;-63
2022/12/21 07:17:26;;;;;;;11.70;8.00;;;;;;;2.23;100.00;100047.73;1809935;78;21600;-62
2022/12/21 07:19:53;;;;;;;12.00;8.38;;;;;;;2.24;100.00;100045.99;1745180;80;21791;-60
2022/12/21 07:22:19;;;;;;;12.98;9.00;;;;;;;2.30;100.00;100049.89;1805951;78;21671;-63
2022/12/21 07:24:47;;;;;;;15.90;9.33;;;;;;;2.36;100.00;100049.87;1795607;78;21083;-62
2022/12/21 07:27:13;;;;;;;12.60;8.53;;;;;;;2.43;100.00;100057.19;1797791;78;21498;-61
2022/12/21 07:29:40;;;;;;;12.65;9.50;;;;;;;2.43;100.00;100053.30;1798245;78;21519;-63
2022/12/21 07:32:07;;;;;;;13.43;9.50;;;;;;;2.46;100.00;100056.74;1799754;77;21761;-68
2022/12/21 07:34:34;;;;;;;12.43;9.28;;;;;;;2.49;100.00;100051.55;1768555;80;21014;-61
2022/12/21 07:37:01;;;;;;;11.90;8.80;;;;;;;2.52;100.00;100046.77;1802061;78;20965;-62
2022/12/21 07:39:28;;;;;;;11.03;8.70;;;;;;;2.55;100.00;100048.52;1767864;79;21492;-61
2022/12/21 07:41:54;;;;;;;11.13;8.07;;;;;;;2.60;100.00;100042.85;1793449;78;21585;-61
2022/12/21 07:44:21;;;;;;;10.68;8.23;;;;;;;2.60;100.00;100044.15;1756717;80;21967;-61
2022/12/21 07:46:51;;;;;;;13.60;8.68;;;;;;;2.62;100.00;100050.19;1797916;78;21508;-62
2022/12/21 07:49:19;;;;;;;10.05;8.33;;;;;;;2.65;100.00;100054.94;1773350;79;21580;-60
2022/12/21 07:51:46;;;;;;;11.63;8.73;;;;;;;2.69;100.00;100054.09;1798693;78;21566;-60
2022/12/21 07:54:18;;;;;;;14.03;9.53;;;;;;;2.72;100.00;100054.05;1807138;77;21486;-60
2022/12/21 07:56:44;;;;;;;11.75;8.68;;;;;;;2.76;100.00;100060.55;1767687;80;21782;-62
2022/12/21 07:59:12;;;;;;;11.60;7.73;;;;;;;2.76;100.00;100061.84;1761588;80;21529;-61
2022/12/21 08:01:39;;;;;;;13.03;9.03;;;;;;;2.78;100.00;100063.55;1785570;78;21488;-61
2022/12/21 08:04:07;;;;;;;13.43;10.23;;;;;;;2.78;100.00;100060.95;1803390;78;21457;-60
2022/12/21 08:06:34;;;;;;;14.07;10.65;;;;;;;2.79;100.00;100055.31;1772552;79;21505;-61
2022/12/21 08:09:01;;;;;;;11.88;9.30;;;;;;;2.84;100.00;100058.77;1770702;80;21874;-62
2022/12/21 08:11:29;;;;;;;13.27;9.93;;;;;;;2.87;100.00;100051.83;1798734;78;21545;-61
2022/12/21 08:13:56;;;;;;;14.23;10.28;;;;;;;2.88;100.00;100052.27;1770667;80;21518;-60
2022/12/21 08:16:23;;;;;;;14.57;10.27;;;;;;;2.90;100.00;100046.63;1777810;79;21520;-60
2022/12/21 08:18:50;;;;;;;12.17;9.67;;;;;;;2.93;100.00;100047.03;1773168;80;21517;-59
2022/12/21 08:21:17;;;;;;;14.13;10.35;;;;;;;2.96;100.00;100039.23;1764567;80;21860;-58
2022/12/21 08:23:44;;;;;;;14.90;10.53;;;;;;;2.95;100.00;100032.75;1801678;78;21013;-61
2022/12/21 10:54:07;;;;;;;14.58;11.25;;;;;;;5.98;100.00;99892.23;1752501;80;21525;-56
2022/12/21 10:56:48;;;;;;;13.30;10.88;;;;;;;6.18;100.00;99878.33;1763019;80;21536;-57
2022/12/21 10:59:30;;;;;;;14.58;12.13;;;;;;;6.34;100.00;99877.54;1762681;80;21844;-57
2022/12/21 11:01:57;;;;;;;16.90;12.03;;;;;;;6.48;100.00;99879.87;1757885;79;21648;-55
2022/12/21 11:04:31;;;;;;;13.30;10.13;;;;;;;6.67;100.00;99882.92;1758433;80;21592;-56
2022/12/21 11:07:03;;;;;;;14.43;11.63;;;;;;;6.82;100.00;99887.78;1742158;79;21588;-56
2022/12/21 11:09:40;;;;;;;15.45;11.50;;;;;;;6.99;100.00;99890.45;1761303;79;20956;-55
2022/12/21 11:12:21;;;;;;;34.80;22.07;;;;;;;7.20;100.00;99896.45;1763619;79;21513;-56
2022/12/21 11:14:50;;;;;;;43.40;26.70;;;;;;;7.71;100.00;99896.45;1761530;79;21860;-56
2022/12/21 11:17:28;;;;;;;52.00;28.98;;;;;;;7.67;100.00;99888.73;1759709;80;21548;-56
2022/12/21 11:20:09;;;;;;;55.20;37.17;;;;;;;7.48;100.00;99889.22;1761720;79;21532;-55
2022/12/21 11:22:38;;;;;;;150.97;75.15;;;;;;;7.37;100.00;99893.87;1748957;79;21545;-55
2022/12/21 11:25:05;;;;;;;141.25;71.30;;;;;;;7.26;100.00;99895.89;1730060;80;21552;-56
2022/12/21 11:27:33;;;;;;;106.50;54.00;;;;;;;7.17;100.00;99896.97;1759500;80;21788;-57
2022/12/21 11:30:18;;;;;;;64.80;31.83;;;;;;;7.12;100.00;99896.22;1737780;80;22028;-54
2022/12/21 11:32:45;;;;;;;40.10;23.15;;;;;;;7.10;100.00;99894.09;1759362;80;21556;-57
2022/12/21 11:35:29;;;;;;;33.40;21.87;;;;;;;7.15;100.00;99890.47;1749189;78;21457;-56
2022/12/21 11:38:11;;;;;;;29.72;19.87;;;;;;;7.18;100.00;99892.17;1748469;80;21580;-57
2022/12/21 11:40:38;;;;;;;64.80;31.50;;;;;;;7.20;100.00;99890.37;1761364;80;21879;-58
2022/12/21 11:43:08;;;;;;;82.97;44.88;;;;;;;7.13;100.00;99880.50;1753099;80;21505;-56
2022/12/21 11:46:12;;;;;;;42.33;25.70;;;;;;;7.04;100.00;99878.56;1754563;79;21560;-56
2022/12/21 11:49:01;;;;;;;39.90;24.43;;;;;;;6.91;100.00;99880.19;1766033;79;21415;-55
2022/12/21 11:51:43;;;;;;;31.95;19.95;;;;;;;6.78;100.00;99884.84;1738650;80;21492;-56
2022/12/21 11:54:34;;;;;;;24.47;16.10;;;;;;;6.66;100.00;99886.87;1761294;78;22195;-57
2022/12/21 11:57:30;;;;;;;21.50;13.55;;;;;;;6.58;100.00;99879.21;1755480;78;21577;-57
2022/12/21 12:00:21;;;;;;;20.68;14.90;;;;;;;6.47;100.00;99875.52;1751912;80;21620;-58
2022/12/21 12:03:18;;;;;;;21.07;13.75;;;;;;;6.33;100.00;99881.48;1767116;80;21557;-59
2022/12/21 12:06:24;;;;;;;14.83;11.40;;;;;;;6.18;100.00;99874.87;1759295;80;21084;-58
2022/12/21 12:09:21;;;;;;;14.40;10.03;;;;;;;6.01;100.00;99877.38;1752135;78;21906;-57
2022/12/21 12:12:02;;;;;;;10.67;8.80;;;;;;;5.89;100.00;99888.02;1745088;80;21012;-58
2022/12/21 12:14:52;;;;;;;11.88;8.63;;;;;;;5.76;100.00;99886.08;1766332;79;21580;-60
2022/12/21 12:18:15;;;;;;;9.23;7.97;;;;;;;5.72;100.00;99892.70;1761709;80;21528;-56
2022/12/21 12:21:00;;;;;;;12.07;8.78;;;;;;;5.65;100.00;99895.44;1750711;80;21043;-56
2022/12/21 12:23:41;;;;;;;13.10;8.53;;;;;;;5.69;100.00;99896.24;1738744;80;21754;-57
2022/12/21 12:26:32;;;;;;;12.00;8.55;;;;;;;5.68;100.00;99900.18;1761561;80;21528;-57
2022/12/21 12:29:55;;;;;;;9.63;7.85;;;;;;;5.64;100.00;99897.61;1749701;80;21509;-55
2022/12/21 12:33:13;;;;;;;11.45;8.50;;;;;;;5.64;100.00;99891.09;1761901;80;21576;-54
2022/12/21 12:36:03;;;;;;;9.53;7.72;;;;;;;5.63;100.00;99896.33;1745490;79;21057;-55
2022/12/21 12:38:45;;;;;;;11.73;7.58;;;;;;;5.56;100.00;99894.75;1757470;80;22092;-56
2022/12/21 18:25:14;;;;;;;21.00;11.75;;;;;;;0.61;100.00;99762.52;1788588;78;23282;-58
2022/12/21 18:30:55;;;;;;;29.65;17.07;;;;;;;1.19;100.00;99774.48;1680093;83;21553;-59
2022/12/21 18:33:24;;;;;;;29.90;18.15;;;;;;;1.42;100.00;99780.47;1682128;83;21596;-57
2022/12/21 18:35:51;;;;;;;33.38;19.65;;;;;;;1.53;100.00;99783.03;1699423;83;28560;-57
2022/12/21 18:38:26;;;;;;;30.52;18.62;;;;;;;1.59;100.00;99770.48;1701005;83;21082;-58
2022/12/21 18:40:53;;;;;;;24.10;16.45;;;;;;;1.66;100.00;99767.00;1711525;82;21513;-57
2022/12/21 18:43:27;;;;;;;24.82;15.75;;;;;;;1.70;100.00;99772.15;1704576;83;22077;-57
2022/12/21 18:46:24;;;;;;;24.45;14.95;;;;;;;1.76;100.00;99759.59;1698497;83;21410;-58
2022/12/21 18:48:54;;;;;;;23.38;15.25;;;;;;;1.80;100.00;99761.30;1700624;83;21567;-58
2022/12/21 18:51:36;;;;;;;24.02;16.05;;;;;;;1.83;100.00;99763.88;1711392;82;21588;-58
2022/12/21 18:54:14;;;;;;;21.60;14.15;;;;;;;1.86;100.00;99756.51;1661075;84;21101;-58
2022/12/21 18:56:43;;;;;;;20.48;13.95;;;;;;;1.92;100.00;99753.46;1710808;82;21819;-58
2022/12/21 18:59:10;;;;;;;22.35;15.18;;;;;;;1.99;100.00;99750.37;1712696;83;21623;-59
2022/12/21 19:01:36;;;;;;;21.40;13.83;;;;;;;2.05;100.00;99750.33;1711053;83;21497;-58
2022/12/21 19:04:06;;;;;;;21.02;13.38;;;;;;;2.05;100.00;99750.33;1713114;82;21528;-57
2022/12/21 19:06:33;;;;;;;21.42;14.05;;;;;;;2.07;100.00;99747.32;1710870;82;21596;-58
2022/12/21 19:09:03;;;;;;;21.90;13.15;;;;;;;2.06;100.00;99737.80;1730737;81;21874;-60
2022/12/21 19:11:30;;;;;;;21.73;14.55;;;;;;;2.07;100.00;99734.35;1719665;81;21435;-58
2022/12/21 19:13:57;;;;;;;21.37;15.43;;;;;;;2.09;100.00;99724.83;1736408;81;21545;-59
2022/12/21 19:16:28;;;;;;;20.20;14.63;;;;;;;2.06;100.00;99733.06;1736799;81;21476;-59
2022/12/21 19:18:55;;;;;;;23.45;13.90;;;;;;;2.10;100.00;99738.64;1739474;81;21664;-60
2022/12/21 19:21:28;;;;;;;18.17;13.28;;;;;;;2.09;100.00;99749.47;1740013;81;21825;-60
2022/12/21 19:24:00;;;;;;;23.40;14.93;;;;;;;2.11;100.00;99753.32;1736598;81;21118;-60
2022/12/21 19:26:35;;;;;;;31.15;20.55;;;;;;;2.09;100.00;99746.88;1737617;81;21452;-59
2022/12/21 19:29:13;;;;;;;32.67;20.55;;;;;;;2.16;100.00;99752.02;1738695;81;21454;-60
2022/12/21 19:31:40;;;;;;;34.70;21.12;;;;;;;2.16;100.00;99749.42;1735860;81;21426;-59
2022/12/21 19:34:07;;;;;;;36.23;20.55;;;;;;;2.16;100.00;99749.42;1739180;81;21919;-60
2022/12/21 19:36:35;;;;;;;28.95;18.65;;;;;;;2.20;100.00;99751.11;1739621;81;21392;-62
2022/12/21 19:39:04;;;;;;;;;;;;;;;2.21;100.00;99747.22;1745685;80;21422;-59
2022/12/21 19:41:31;;;;;;;29.72;17.32;;;;;;;2.16;100.00;99746.38;1738579;80;20423;-59
2022/12/21 19:43:59;;;;;;;31.77;17.85;;;;;;;2.16;100.00;99741.63;1717023;82;21068;-59
2022/12/21 19:46:27;;;;;;;32.05;19.12;;;;;;;2.12;100.00;99736.90;1687137;82;22164;-59
2022/12/21 19:48:56;;;;;;;32.80;18.95;;;;;;;2.11;100.00;99739.94;1748472;80;21769;-59
2022/12/21 19:51:24;;;;;;;28.57;18.65;;;;;;;2.14;100.00;99745.53;1750115;80;21583;-59
2022/12/21 19:53:51;;;;;;;31.30;18.45;;;;;;;2.16;100.00;99745.08;1746563;80;21489;-60
2022/12/21 20:11:25;;;;;;;28.23;16.50;;;;;;;1.05;100.00;99740.42;1786238;78;23175;-63
2022/12/21 20:13:55;;;;;;;24.63;16.85;;;;;;;1.37;100.00;99749.82;1768050;80;21490;-63
2022/12/21 20:16:23;;;;;;;25.37;16.32;;;;;;;1.52;100.00;99751.05;1759002;80;21892;-59
2022/12/21 20:18:50;;;;;;;23.35;16.07;;;;;;;1.59;100.00;99741.53;1771489;80;21463;-62
2022/12/21 20:21:20;;;;;;;24.75;15.03;;;;;;;1.67;100.00;99747.53;1758461;80;21592;-58
2022/12/21 20:23:47;;;;;;;21.35;14.15;;;;;;;1.69;100.00;99744.48;1774075;80;21545;-62
2022/12/21 20:26:26;;;;;;;21.45;14.70;;;;;;;1.77;100.00;99744.45;1754899;80;21556;-62
2022/12/21 20:28:55;;;;;;;25.00;15.93;;;;;;;1.79;100.00;99737.96;1769268;80;21796;-61
2022/12/21 20:31:22;;;;;;;22.27;15.15;;;;;;;1.81;100.00;99742.29;1769878;80;21434;-60
2022/12/21 20:33:48;;;;;;;25.55;15.80;;;;;;;1.88;100.00;99736.17;1757939;80;21522;-62
2022/12/21 20:36:43;;;;;;;23.83;15.30;;;;;;;1.91;100.00;99735.31;1761064;80;21712;-59
2022/12/21 20:39:18;;;;;;;22.37;13.90;;;;;;;1.94;100.00;99734.86;1763106;80;21560;-61
2022/12/21 20:44:49;;;;;;;20.77;13.10;;;;;;;1.92;100.00;99731.42;1758553;80;21009;-62
2022/12/21 20:47:19;;;;;;;17.30;11.97;;;;;;;1.94;100.00;99729.67;1763145;80;21521;-61
2022/12/21 20:49:46;;;;;;;18.17;12.05;;;;;;;1.93;100.00;99728.38;1768522;80;21430;-61
2022/12/21 20:52:25;;;;;;;16.00;11.40;;;;;;;1.94;100.00;99732.27;1762089;80;21493;-61
2022/12/21 20:54:52;;;;;;;18.15;12.30;;;;;;;2.01;100.00;99720.55;1748049;80;21892;-63
2022/12/21 20:57:19;;;;;;;19.23;12.57;;;;;;;1.98;100.00;99725.33;1767852;80;21528;-61
2022/12/21 20:59:46;;;;;;;17.77;11.08;;;;;;;1.95;100.00;99727.48;1772263;80;21442;-61
2022/12/21 21:02:25;;;;;;;18.62;11.55;;;;;;;1.99;100.00;99734.82;1758727;80;21505;-63
2022/12/21 21:04:52;;;;;;;17.73;12.20;;;;;;;2.00;100.00;99721.41;1768042;80;21522;-62
2022/12/21 21:07:26;;;;;;;18.95;10.00;;;;;;;2.00;100.00;99716.22;1764869;80;21907;-61
2022/12/21 21:09:54;;;;;;;21.23;12.47;;;;;;;2.02;100.00;99715.80;1763010;80;21475;-60
2022/12/21 21:12:21;;;;;;;23.30;11.12;;;;;;;1.99;100.00;99704.14;1743699;80;21568;-63
2022/12/21 21:14:48;;;;;;;19.65;11.22;;;;;;;2.04;100.00;99703.23;1752575;80;21053;-60
2022/12/21 21:17:20;;;;;;;16.97;11.27;;;;;;;2.04;100.00;99698.05;1750753;80;21577;-59
2022/12/21 21:19:46;;;;;;;15.35;11.15;;;;;;;2.07;100.00;99691.55;1753416;80;21440;-61
2022/12/21 21:25:31;;;;;;;16.90;11.15;;;;;;;2.06;100.00;99684.62;1751183;80;21494;-62
2022/12/21 21:28:02;;;;;;;17.30;11.68;;;;;;;1.98;100.00;99687.73;1747313;80;21609;-60
2022/12/21 21:30:28;;;;;;;17.30;10.78;;;;;;;2.03;100.00;99682.05;1702033;82;21441;-62
2022/12/21 21:32:55;;;;;;;17.65;10.95;;;;;;;2.06;100.00;99687.23;1752394;80;21846;-61
2022/12/21 21:35:24;;;;;;;16.80;10.63;;;;;;;2.07;100.00;99688.08;1744601;80;21073;-62
2022/12/21 21:43:30;;;;;;;15.50;9.95;;;;;;;2.09;100.00;99687.63;1748599;80;21541;-62
2022/12/21 21:45:57;;;;;;;15.68;10.98;;;;;;;2.05;100.00;99682.05;1752334;80;21555;-61
2022/12/21 21:48:25;;;;;;;16.27;10.78;;;;;;;2.06;100.00;99678.59;1746965;80;21577;-60
2022/12/21 21:50:52;;;;;;;14.70;10.00;;;;;;;2.09;100.00;99674.66;1741788;80;20992;-60
2022/12/21 21:53:18;;;;;;;13.58;10.38;;;;;;;2.09;100.00;99675.95;1750799;80;21545;-62
2022/12/21 21:55:46;;;;;;;15.95;10.08;;;;;;;2.09;100.00;99671.65;1747112;80;20994;-60
2022/12/21 21:58:24;;;;;;;17.42;10.80;;;;;;;2.06;100.00;99666.92;1752245;80;21868;-61
2022/12/21 22:00:51;;;;;;;15.85;11.38;;;;;;;2.10;100.00;99668.61;1743257;80;21531;-62
